Time;durP1;ratioP1;P1;durP2;ratioP2;P2;SDS_P1;SDS_P2;PMS_P1;PMS_P2;Temp;Humidity;BMP_temperature;BMP_pressure;BME280_temperature;BME280_humidity;BME280_pressure;Samples;Min_cycle;Max_cycle;Signal;HPM_P1;HPM_P2
2022/06/25 00:01:58;;;;;;;48.92;32.92;;;;;;;22.17;69.89;100536.47;4907456;28;121926;-77
2022/06/25 00:07:09;;;;;;;45.47;32.03;;;;;;;22.07;69.56;100547.31;4910658;28;121995;-77
2022/06/25 00:09:34;;;;;;;49.63;32.45;;;;;;;22.05;69.87;100549.88;4907913;28;121786;-76
2022/06/25 00:14:45;;;;;;;48.42;32.55;;;;;;;22.05;70.12;100561.06;4902781;28;124295;-77
2022/06/25 00:17:10;;;;;;;45.83;33.15;;;;;;;22.00;70.31;100557.03;4899351;28;122145;-77
2022/06/25 00:19:36;;;;;;;45.47;33.22;;;;;;;21.99;70.20;100555.50;4902124;28;123482;-76
2022/06/25 00:22:02;;;;;;;49.90;35.55;;;;;;;21.99;69.88;100558.31;4903825;28;122186;-77
2022/06/25 00:24:28;;;;;;;49.65;35.45;;;;;;;21.95;69.78;100546.69;4903361;28;121769;-76
2022/06/25 00:26:54;;;;;;;44.58;33.28;;;;;;;21.96;70.06;100558.63;4902968;28;121656;-76
2022/06/25 00:29:36;;;;;;;51.35;35.83;;;;;;;21.94;69.94;100555.59;4909450;28;121914;-77
2022/06/25 00:32:02;;;;;;;58.40;38.13;;;;;;;21.93;70.43;100556.91;4896503;28;122621;-77
2022/06/25 00:34:28;;;;;;;54.30;38.35;;;;;;;21.91;69.83;100551.84;4908353;28;122159;-77
2022/06/25 00:36:53;;;;;;;55.42;40.63;;;;;;;21.86;70.16;100544.31;4902121;28;121476;-77
2022/06/25 00:39:20;;;;;;;54.45;40.65;;;;;;;21.86;70.11;100547.09;4882051;28;122697;-77
2022/06/25 00:41:45;;;;;;;51.40;39.53;;;;;;;21.87;69.94;100548.63;4902195;28;122009;-77
2022/06/25 00:44:11;;;;;;;53.33;41.15;;;;;;;21.87;70.49;100542.28;4908598;28;121976;-77
2022/06/25 00:46:37;;;;;;;57.42;40.53;;;;;;;21.83;70.27;100547.41;4901205;28;121709;-77
2022/06/25 00:49:03;;;;;;;54.10;40.88;;;;;;;21.86;69.94;100549.91;4890990;28;122502;-77
2022/06/25 00:51:32;;;;;;;52.78;40.03;;;;;;;21.76;69.77;100548.78;4901421;28;121827;-77
2022/06/25 00:54:04;;;;;;;53.97;40.50;;;;;;;21.84;70.46;100557.31;4907345;28;121823;-77
2022/06/25 00:56:35;;;;;;;49.20;38.20;;;;;;;21.83;70.32;100559.34;4891490;28;124385;-77
2022/06/25 00:59:43;;;;;;;49.10;38.53;;;;;;;21.75;70.27;100558.44;4877512;28;121874;-76
2022/06/25 01:02:09;;;;;;;48.85;38.15;;;;;;;21.78;70.30;100565.78;4869604;28;122346;-77
2022/06/25 01:04:38;;;;;;;50.17;39.53;;;;;;;21.73;70.28;100555.44;4869892;28;122045;-77
2022/06/25 01:07:06;;;;;;;42.17;35.83;;;;;;;21.74;69.50;100560.47;4868643;28;122343;-77
2022/06/25 01:09:32;;;;;;;43.22;35.95;;;;;;;21.67;70.07;100555.53;4887569;28;121656;-76
2022/06/25 01:12:00;;;;;;;48.28;36.85;;;;;;;21.69;70.03;100563.34;4889325;28;121719;-76
2022/06/25 01:14:26;;;;;;;43.00;35.83;;;;;;;21.65;69.54;100563.66;4880688;28;121815;-77
2022/06/25 01:16:52;;;;;;;45.88;35.40;;;;;;;21.63;70.19;100568.28;4844436;28;124076;-77
2022/06/25 01:19:18;;;;;;;42.78;34.67;;;;;;;21.62;69.89;100575.16;4853005;28;122276;-77
2022/06/25 01:21:47;;;;;;;43.70;34.78;;;;;;;21.61;69.67;100573.63;4891339;28;121833;-77
2022/06/25 01:24:13;;;;;;;44.63;35.13;;;;;;;21.59;69.92;100570.63;4872651;28;121826;-76
2022/06/25 01:26:40;;;;;;;41.25;33.08;;;;;;;21.59;69.52;100570.63;4905216;28;121825;-76
2022/06/25 01:29:12;;;;;;;45.33;35.78;;;;;;;21.56;69.77;100574.47;4908349;28;121870;-76
2022/06/25 01:31:37;;;;;;;43.88;34.83;;;;;;;21.54;69.40;100574.25;4897174;28;121904;-77
2022/06/25 01:34:04;;;;;;;44.80;34.42;;;;;;;21.47;69.68;100569.28;4887065;28;122212;-77
2022/06/25 01:36:30;;;;;;;39.95;33.35;;;;;;;21.49;69.30;100581.41;4898769;28;121601;-77
2022/06/25 01:38:56;;;;;;;40.60;33.47;;;;;;;21.44;69.16;100580.22;4904431;28;121856;-76
2022/06/25 01:41:22;;;;;;;45.20;32.58;;;;;;;21.44;69.23;100587.81;4906003;28;121571;-76
2022/06/25 01:43:47;;;;;;;37.75;31.23;;;;;;;21.40;69.34;100579.00;4875192;28;121320;-76
2022/06/25 01:46:14;;;;;;;40.03;32.53;;;;;;;21.35;69.16;100583.38;4899416;28;121541;-76
2022/06/25 01:48:40;;;;;;;37.08;30.70;;;;;;;21.32;68.88;100587.25;4904774;28;121501;-76
2022/06/25 01:51:06;;;;;;;35.40;30.33;;;;;;;21.28;68.92;100589.53;4899221;28;122006;-77
2022/06/25 01:53:32;;;;;;;34.40;29.98;;;;;;;21.21;68.90;100594.94;4897541;28;121434;-76
2022/06/25 01:55:58;;;;;;;36.47;30.60;;;;;;;21.21;68.67;100592.91;4896158;28;121672;-77
2022/06/25 01:58:23;;;;;;;35.90;31.38;;;;;;;21.17;68.83;100600.84;4901685;28;121553;-77
2022/06/25 02:00:49;;;;;;;38.00;30.75;;;;;;;21.12;68.69;100604.44;4899532;28;121285;-77
2022/06/25 02:03:16;;;;;;;37.05;30.90;;;;;;;21.12;68.81;100607.25;4902705;28;122570;-77
2022/06/25 02:05:59;;;;;;;36.50;30.95;;;;;;;21.10;69.33;100612.59;4875210;28;122848;-76
2022/06/25 02:08:29;;;;;;;37.63;31.67;;;;;;;21.09;69.11;100611.09;4898337;28;120777;-77
2022/06/25 02:10:56;;;;;;;35.97;30.70;;;;;;;21.07;69.04;100610.84;4895829;28;121431;-76
2022/06/25 02:13:22;;;;;;;39.05;32.30;;;;;;;21.06;69.11;100620.50;4907502;28;121379;-76
2022/06/25 02:15:49;;;;;;;38.53;31.85;;;;;;;21.05;69.31;100616.19;4898855;28;121571;-77
2022/06/25 02:18:15;;;;;;;39.88;32.08;;;;;;;20.99;69.11;100609.91;4903150;28;121225;-76
2022/06/25 02:20:42;;;;;;;52.88;32.50;;;;;;;21.03;69.39;100621.53;4885274;28;123613;-77
2022/06/25 02:23:09;;;;;;;52.88;32.15;;;;;;;20.98;68.42;100619.56;4900136;28;121226;-76
2022/06/25 02:25:35;;;;;;;44.85;33.38;;;;;;;20.93;68.76;100614.81;4914232;28;121023;-76
2022/06/25 02:28:01;;;;;;;40.28;35.78;;;;;;;20.90;69.01;100624.22;4902973;28;121312;-77
2022/06/25 02:30:29;;;;;;;38.38;34.38;;;;;;;20.90;68.98;100629.81;4901773;28;121384;-77
2022/06/25 02:32:55;;;;;;;38.90;34.70;;;;;;;20.92;69.05;100638.41;4899908;28;121097;-76
2022/06/25 02:35:21;;;;;;;38.83;34.67;;;;;;;20.89;69.25;100645.03;4896206;28;123491;-77
2022/06/25 02:37:47;;;;;;;38.50;34.55;;;;;;;20.86;69.33;100654.44;4904456;28;121021;-76
2022/06/25 02:40:14;;;;;;;37.08;33.15;;;;;;;20.82;69.31;100654.72;4903942;28;121357;-76
2022/06/25 02:42:42;;;;;;;43.63;34.40;;;;;;;20.73;69.01;100652.28;4902000;28;120967;-77
2022/06/25 02:45:09;;;;;;;38.50;34.30;;;;;;;20.75;68.87;100666.44;4894875;28;121791;-76
2022/06/25 02:47:37;;;;;;;61.65;35.83;;;;;;;20.70;68.94;100668.00;4904061;28;120700;-77
2022/06/25 02:50:12;;;;;;;66.55;36.55;;;;;;;20.70;68.81;100681.94;4900711;28;120355;-77
2022/06/25 02:52:41;;;;;;;41.33;36.40;;;;;;;20.68;69.13;100690.06;4903010;28;120853;-76
2022/06/25 02:55:12;;;;;;;52.58;40.97;;;;;;;20.62;69.43;100683.78;4911957;28;121415;-76
2022/06/25 03:00:37;;;;;;;43.67;38.20;;;;;;;20.68;69.68;100697.69;4878628;28;121234;-77
2022/06/25 03:03:05;;;;;;;43.72;38.03;;;;;;;20.68;69.72;100686.53;4904653;28;121753;-77
2022/06/25 03:05:31;;;;;;;47.83;37.03;;;;;;;20.68;69.75;100681.72;4887485;28;120647;-76
2022/06/25 03:07:57;;;;;;;38.13;34.00;;;;;;;20.65;69.66;100677.19;4883461;28;121363;-76
2022/06/25 03:10:24;;;;;;;41.55;33.97;;;;;;;20.69;69.69;100669.28;4903595;28;120941;-76
2022/06/25 03:12:51;;;;;;;38.63;34.17;;;;;;;20.67;69.84;100680.19;4897910;28;121365;-76
2022/06/25 03:15:24;;;;;;;40.20;34.65;;;;;;;20.69;70.26;100683.22;4904053;28;121142;-77
2022/06/25 03:17:49;;;;;;;39.85;34.95;;;;;;;20.72;69.83;100684.22;4892334;28;120780;-77
2022/06/25 03:20:44;;;;;;;41.42;34.67;;;;;;;20.73;70.13;100694.06;4896172;28;121054;-77
2022/06/25 03:23:11;;;;;;;45.97;35.90;;;;;;;20.72;70.00;100692.56;4889360;28;120939;-76
2022/06/25 03:25:39;;;;;;;41.00;35.50;;;;;;;20.76;69.89;100691.00;4906602;28;120629;-76
2022/06/25 03:28:04;;;;;;;38.88;34.83;;;;;;;20.76;70.07;100690.25;4893760;28;120968;-77
2022/06/25 03:30:37;;;;;;;42.75;36.70;;;;;;;20.77;69.76;100686.94;4890229;28;120697;-76
2022/06/25 03:33:05;;;;;;;42.58;37.65;;;;;;;20.75;69.98;100692.28;4907677;28;121897;-77
2022/06/25 03:35:38;;;;;;;47.08;38.50;;;;;;;20.81;70.09;100695.75;4907220;28;123336;-76
2022/06/25 03:38:10;;;;;;;44.13;36.88;;;;;;;20.83;69.85;100696.03;4908624;28;120800;-77
2022/06/25 03:40:36;;;;;;;47.47;40.40;;;;;;;20.87;70.34;100692.19;4906410;28;122255;-76
2022/06/25 03:43:06;;;;;;;48.42;40.38;;;;;;;20.87;69.96;100692.94;4884395;28;123325;-76
2022/06/25 03:45:35;;;;;;;46.72;39.17;;;;;;;20.92;70.52;100694.91;4895304;28;121035;-77
2022/06/25 03:48:00;;;;;;;45.85;39.38;;;;;;;20.96;70.21;100694.63;4892152;28;120902;-77
2022/06/25 03:50:30;;;;;;;46.10;38.45;;;;;;;20.99;70.18;100699.16;4894162;28;122459;-77
2022/06/25 03:52:56;;;;;;;48.88;38.85;;;;;;;21.01;70.43;100688.97;4911583;28;121007;-76
2022/06/25 03:55:22;;;;;;;46.22;37.83;;;;;;;21.03;69.90;100689.22;4875620;28;121308;-77
2022/06/25 03:57:48;;;;;;;47.92;39.88;;;;;;;21.05;69.65;100685.91;4894574;28;121218;-77
2022/06/25 04:00:21;;;;;;;50.28;39.22;;;;;;;21.01;70.07;100675.03;4910989;28;121878;-76
2022/06/25 04:03:17;;;;;;;49.25;38.53;;;;;;;21.03;69.86;100683.63;4890952;28;122379;-76
2022/06/25 04:06:00;;;;;;;45.70;38.25;;;;;;;21.03;69.75;100672.47;4897525;28;121428;-76
2022/06/25 04:08:44;;;;;;;49.05;38.60;;;;;;;21.07;69.82;100677.78;4909121;28;121705;-76
2022/06/25 04:11:13;;;;;;;44.13;37.90;;;;;;;21.07;70.12;100675.00;4904248;28;121515;-76
2022/06/25 04:13:54;;;;;;;47.70;38.80;;;;;;;21.13;69.73;100682.00;4892142;28;122210;-76
2022/06/25 04:16:22;;;;;;;46.10;38.83;;;;;;;21.14;70.00;100683.53;4902950;28;121720;-76
2022/06/25 04:18:48;;;;;;;48.53;38.83;;;;;;;21.16;69.94;100683.00;4904788;28;121027;-76
2022/06/25 04:21:16;;;;;;;46.95;38.35;;;;;;;21.19;70.08;100684.75;4902206;28;121448;-76
2022/06/25 04:23:42;;;;;;;45.85;37.63;;;;;;;21.19;69.70;100690.31;4894689;28;121036;-76
2022/06/25 04:26:10;;;;;;;43.92;36.78;;;;;;;21.13;69.27;100675.69;4904888;28;121563;-77
2022/06/25 04:31:37;;;;;;;45.35;35.97;;;;;;;21.20;69.71;100686.25;4908179;28;121947;-77
2022/06/25 04:34:08;;;;;;;44.80;36.88;;;;;;;21.16;69.67;100674.63;4909999;28;121259;-76
2022/06/25 04:36:34;;;;;;;40.65;36.13;;;;;;;21.18;69.99;100674.09;4885029;28;121685;-77
2022/06/25 04:39:15;;;;;;;45.15;37.13;;;;;;;21.19;70.05;100672.81;4895135;28;121305;-76
2022/06/25 04:41:41;;;;;;;43.95;37.17;;;;;;;21.21;69.69;100681.41;4892804;28;121384;-76
2022/06/25 04:44:16;;;;;;;44.42;35.88;;;;;;;21.17;69.50;100667.78;4895019;28;121954;-76
2022/06/25 04:46:43;;;;;;;42.35;35.35;;;;;;;21.19;69.71;100681.94;4896663;28;121774;-76
2022/06/25 04:49:09;;;;;;;40.80;34.92;;;;;;;21.18;69.22;100686.00;4891092;28;121492;-77
2022/06/25 04:51:41;;;;;;;41.58;35.45;;;;;;;21.18;69.70;100683.22;4884688;28;122712;-76
2022/06/25 04:54:06;;;;;;;41.60;36.13;;;;;;;21.17;69.63;100692.13;4904127;28;121004;-77
2022/06/25 04:56:43;;;;;;;40.85;36.25;;;;;;;21.15;69.21;100696.19;4891508;28;121470;-76
2022/06/25 04:59:10;;;;;;;39.95;35.55;;;;;;;21.14;69.65;100696.72;4899398;28;121145;-77
2022/06/25 05:01:51;;;;;;;39.50;34.97;;;;;;;21.15;69.86;100698.22;4913543;28;121870;-77
2022/06/25 05:04:21;;;;;;;44.35;37.38;;;;;;;21.13;69.93;100681.25;4908984;28;122062;-76
2022/06/25 05:06:47;;;;;;;42.35;36.55;;;;;;;21.21;70.34;100690.53;4910410;28;121809;-76
2022/06/25 05:09:13;;;;;;;44.80;37.85;;;;;;;21.24;70.19;100688.75;4891350;28;123743;-76
2022/06/25 05:11:43;;;;;;;43.70;35.85;;;;;;;21.26;70.48;100691.78;4893264;28;124003;-76
2022/06/25 05:14:09;;;;;;;44.15;35.53;;;;;;;21.29;70.41;100696.31;4880863;28;121439;-76
2022/06/25 05:16:35;;;;;;;41.38;34.65;;;;;;;21.34;70.60;100687.91;4875894;28;122672;-77
2022/06/25 05:19:01;;;;;;;40.65;31.67;;;;;;;21.37;70.65;100698.00;4876781;28;125101;-76
2022/06/25 05:21:30;;;;;;;39.50;31.10;;;;;;;21.44;70.45;100699.44;4908823;28;121535;-76
2022/06/25 05:23:59;;;;;;;38.15;30.75;;;;;;;21.49;70.42;100695.81;4900679;28;121692;-77
2022/06/25 05:26:25;;;;;;;33.42;28.20;;;;;;;21.48;70.73;100687.97;4902777;28;121791;-76
2022/06/25 05:28:51;;;;;;;33.20;27.08;;;;;;;21.58;70.82;100701.06;4905897;28;121567;-76
2022/06/25 05:31:19;;;;;;;31.38;25.38;;;;;;;21.58;70.94;100703.84;4891523;28;121653;-77
2022/06/25 05:33:44;;;;;;;26.15;22.45;;;;;;;21.66;70.75;100701.19;4892608;28;123616;-77
2022/06/25 05:36:10;;;;;;;24.13;20.45;;;;;;;21.68;70.67;100702.19;4904467;28;121590;-76
2022/06/25 05:38:36;;;;;;;20.10;17.00;;;;;;;21.72;70.99;100701.88;4892691;28;121879;-76
2022/06/25 05:41:08;;;;;;;20.40;16.75;;;;;;;21.72;70.83;100708.22;4893355;23;122398;-81
2022/06/25 05:43:38;;;;;;;17.75;15.43;;;;;;;21.73;70.69;100706.94;4888868;28;124476;-82
2022/06/25 05:46:05;;;;;;;20.17;15.88;;;;;;;21.80;70.93;100713.97;4879455;28;122426;-82
2022/06/25 05:48:31;;;;;;;21.70;15.63;;;;;;;21.88;70.71;100725.28;4859657;28;122867;-82
2022/06/25 05:51:25;;;;;;;17.90;15.25;;;;;;;21.90;70.44;100728.28;4866567;28;123928;-82
2022/06/25 05:53:51;;;;;;;18.48;15.20;;;;;;;21.94;70.58;100734.31;4886810;28;123336;-82
2022/06/25 05:56:17;;;;;;;19.45;15.55;;;;;;;21.96;71.06;100735.31;4893277;28;124392;-82
2022/06/25 05:58:43;;;;;;;15.05;13.43;;;;;;;21.95;70.91;100728.22;4879762;28;125958;-82
2022/06/25 06:01:08;;;;;;;16.95;13.57;;;;;;;22.05;70.58;100746.16;4892650;28;122185;-82
2022/06/25 06:03:34;;;;;;;14.00;11.98;;;;;;;22.12;70.60;100766.38;4898615;28;122160;-82
2022/06/25 06:05:59;;;;;;;14.10;11.98;;;;;;;22.04;70.35;100744.63;4876906;28;122228;-82
2022/06/25 06:08:25;;;;;;;14.93;12.20;;;;;;;22.10;70.10;100752.19;4904020;28;122078;-82
2022/06/25 06:10:51;;;;;;;14.75;11.93;;;;;;;22.20;70.20;100756.09;4882547;28;122305;-82
2022/06/25 06:13:16;;;;;;;12.95;10.80;;;;;;;22.18;70.37;100753.06;4892152;28;121944;-82
2022/06/25 06:15:42;;;;;;;12.32;10.02;;;;;;;22.16;70.57;100742.41;4895407;28;123253;-82
2022/06/25 06:18:08;;;;;;;12.45;9.70;;;;;;;22.17;70.20;100746.72;4876418;28;125504;-82
2022/06/25 06:20:34;;;;;;;11.73;8.93;;;;;;;22.27;70.16;100761.09;4874371;28;122152;-82
2022/06/25 06:22:59;;;;;;;13.00;9.43;;;;;;;22.32;69.70;100763.03;4859306;28;124792;-82
2022/06/25 06:25:25;;;;;;;9.50;8.48;;;;;;;22.23;69.71;100755.78;4888501;28;122644;-82
2022/06/25 06:27:51;;;;;;;9.15;8.18;;;;;;;22.29;69.83;100764.84;4877438;28;122086;-82
2022/06/25 06:30:16;;;;;;;8.60;7.15;;;;;;;22.34;69.82;100760.47;4888135;28;125510;-82
2022/06/25 06:32:42;;;;;;;9.30;6.93;;;;;;;22.37;69.31;100770.56;4890446;28;122186;-82
2022/06/25 06:35:10;;;;;;;7.65;6.90;;;;;;;22.34;69.27;100768.84;4878650;28;125136;-82
2022/06/25 06:37:39;;;;;;;7.45;6.75;;;;;;;22.41;69.86;100779.41;4881116;28;124429;-82
2022/06/25 06:40:06;;;;;;;12.45;7.10;;;;;;;22.41;69.37;100775.84;4899469;28;122253;-82
2022/06/25 06:42:31;;;;;;;7.38;6.10;;;;;;;22.29;69.25;100764.84;4873437;28;125087;-82
2022/06/25 06:44:57;;;;;;;9.93;5.70;;;;;;;22.33;68.90;100770.13;4896733;28;125463;-82
2022/06/25 06:47:23;;;;;;;7.13;5.10;;;;;;;22.38;68.92;100765.75;4899895;28;123051;-83
2022/06/25 06:49:51;;;;;;;5.18;4.68;;;;;;;22.44;69.00;100775.53;4901341;28;124579;-82
2022/06/25 06:52:17;;;;;;;5.70;4.60;;;;;;;22.47;68.87;100785.66;4873520;28;123850;-82
2022/06/25 06:54:43;;;;;;;9.93;5.50;;;;;;;22.47;68.83;100790.50;4896790;28;122559;-82
2022/06/25 06:57:09;;;;;;;5.28;4.60;;;;;;;22.48;68.73;100786.44;4899514;28;125374;-82
2022/06/25 06:59:35;;;;;;;5.50;4.55;;;;;;;22.47;68.54;100782.84;4899023;28;121924;-83
2022/06/25 07:02:00;;;;;;;5.32;4.10;;;;;;;22.51;67.82;100790.97;4885244;28;124241;-82
2022/06/25 07:04:26;;;;;;;5.55;4.47;;;;;;;22.51;67.08;100790.97;4896693;28;123263;-82
2022/06/25 07:06:52;;;;;;;5.82;4.43;;;;;;;22.60;67.83;100798.94;4868780;28;122576;-82
2022/06/25 07:09:18;;;;;;;4.80;4.30;;;;;;;22.56;68.15;100792.91;4882039;28;122263;-82
2022/06/25 07:11:43;;;;;;;5.45;4.28;;;;;;;22.65;68.00;100807.25;4883476;28;125633;-82
2022/06/25 07:14:09;;;;;;;4.97;4.00;;;;;;;22.58;67.89;100793.88;4881573;28;125355;-82
2022/06/25 07:16:35;;;;;;;4.65;4.18;;;;;;;22.69;68.02;100815.31;4865371;28;124576;-82
2022/06/25 07:19:01;;;;;;;8.27;4.20;;;;;;;22.60;67.89;100794.09;4897180;28;122644;-82
2022/06/25 07:21:31;;;;;;;5.03;3.92;;;;;;;22.60;68.00;100794.09;4886481;28;123446;-82
2022/06/25 07:23:57;;;;;;;4.70;3.65;;;;;;;22.71;67.56;100814.78;4898701;28;122212;-82
2022/06/25 07:26:24;;;;;;;4.35;3.63;;;;;;;22.73;67.56;100820.63;4883159;28;122355;-82
2022/06/25 07:28:54;;;;;;;4.78;3.78;;;;;;;22.64;67.75;100805.72;4885482;28;122471;-82
2022/06/25 07:31:20;;;;;;;5.25;3.67;;;;;;;22.68;67.89;100811.75;4900617;28;122405;-82
2022/06/25 07:33:46;;;;;;;4.18;3.78;;;;;;;22.75;67.90;100815.25;4888363;28;122048;-82
2022/06/25 07:36:12;;;;;;;6.13;4.10;;;;;;;22.76;67.96;100823.09;4900694;28;125361;-82
2022/06/25 07:38:38;;;;;;;4.93;4.30;;;;;;;22.76;68.04;100823.09;4868204;28;122046;-83
2022/06/25 07:41:04;;;;;;;5.03;4.30;;;;;;;22.74;68.01;100816.53;4884467;28;124435;-82
2022/06/25 07:43:30;;;;;;;4.45;4.03;;;;;;;22.82;67.93;100823.03;4868356;28;126970;-82
2022/06/25 07:45:57;;;;;;;4.30;3.20;;;;;;;22.80;68.26;100822.78;4882870;28;121956;-83
2022/06/25 07:48:22;;;;;;;3.17;2.78;;;;;;;22.85;67.40;100824.75;4900446;28;125165;-82
2022/06/25 07:53:35;;;;;;;5.47;3.88;;;;;;;22.84;67.55;100817.66;4884481;28;121871;-82
2022/06/25 07:56:09;;;;;;;4.07;3.67;;;;;;;22.87;67.81;100824.97;4882533;28;123865;-83
2022/06/25 07:58:35;;;;;;;5.28;4.00;;;;;;;22.92;67.78;100824.13;4900737;28;122101;-82
2022/06/25 08:01:01;;;;;;;4.50;3.63;;;;;;;23.05;67.76;100831.81;4906935;28;125487;-82
2022/06/25 08:03:27;;;;;;;4.30;3.55;;;;;;;23.09;67.99;100824.63;4878887;28;125983;-82
2022/06/25 08:05:53;;;;;;;4.40;3.60;;;;;;;23.19;67.60;100825.72;4874325;28;122617;-82
2022/06/25 08:08:18;;;;;;;4.65;2.88;;;;;;;23.32;67.02;100832.63;4871247;28;125021;-82
2022/06/25 08:10:44;;;;;;;3.53;2.90;;;;;;;23.39;66.68;100831.97;4878506;28;123385;-82
2022/06/25 08:13:10;;;;;;;3.63;3.03;;;;;;;23.47;66.46;100828.03;4877153;28;123164;-82
2022/06/25 08:15:36;;;;;;;4.25;2.90;;;;;;;23.61;66.24;100837.19;4904873;28;124582;-82
2022/06/25 08:18:01;;;;;;;5.28;2.53;;;;;;;23.64;66.50;100841.72;4901339;28;122367;-82
2022/06/25 08:20:27;;;;;;;3.35;2.45;;;;;;;23.71;66.08;100840.34;4867148;28;124830;-82
2022/06/25 08:22:53;;;;;;;3.85;2.65;;;;;;;23.84;65.40;100843.88;4897931;28;125855;-82
2022/06/25 08:25:18;;;;;;;2.67;2.47;;;;;;;23.85;65.20;100830.63;4884204;28;123618;-83
2022/06/25 08:27:51;;;;;;;3.00;2.42;;;;;;;23.98;64.82;100841.06;4902882;28;122117;-83
2022/06/25 08:30:18;;;;;;;3.37;2.27;;;;;;;24.03;64.81;100840.94;4907293;28;123261;-83
2022/06/25 08:32:44;;;;;;;5.60;2.28;;;;;;;24.11;63.97;100841.03;4877301;28;123146;-83
2022/06/25 08:35:11;;;;;;;4.63;2.20;;;;;;;24.20;63.59;100835.00;4858191;28;125036;-83
2022/06/25 08:37:38;;;;;;;4.20;2.20;;;;;;;24.34;64.42;100838.53;4864364;28;128638;-82
2022/06/25 08:40:06;;;;;;;2.80;2.17;;;;;;;24.36;63.60;100839.50;4859074;28;125531;-83
2022/06/25 08:42:32;;;;;;;5.57;2.42;;;;;;;24.43;62.99;100847.25;4872265;28;125341;-83
2022/06/25 08:44:58;;;;;;;3.58;2.58;;;;;;;24.51;63.02;100840.97;4902134;28;122364;-83
2022/06/25 08:47:23;;;;;;;3.45;2.67;;;;;;;24.57;62.94;100838.78;4903841;28;122270;-82
2022/06/25 08:49:52;;;;;;;3.25;2.53;;;;;;;24.70;62.55;100849.97;4900417;28;123056;-83
2022/06/25 08:52:19;;;;;;;5.20;2.78;;;;;;;24.69;63.25;100840.81;4884296;28;122728;-83
2022/06/25 08:54:48;;;;;;;4.22;2.88;;;;;;;24.85;62.83;100855.75;4868513;28;124409;-83
2022/06/25 08:57:15;;;;;;;6.18;3.38;;;;;;;24.86;63.35;100848.84;4869893;28;125746;-82
2022/06/25 08:59:42;;;;;;;5.00;3.10;;;;;;;24.91;63.32;100845.13;4888412;28;122562;-83
2022/06/25 09:02:07;;;;;;;4.68;2.95;;;;;;;25.01;63.54;100859.44;4871703;28;125965;-82
2022/06/25 09:04:33;;;;;;;4.55;3.17;;;;;;;25.07;63.06;100851.66;4883012;28;122185;-83
2022/06/25 09:07:15;;;;;;;4.93;3.22;;;;;;;25.16;62.95;100856.03;4882471;28;124506;-83
2022/06/25 09:09:46;;;;;;;4.72;3.25;;;;;;;25.25;63.03;100861.16;4898225;28;126035;-83
2022/06/25 09:12:15;;;;;;;4.55;3.55;;;;;;;25.31;63.30;100867.38;4900996;28;122357;-83
2022/06/25 09:15:18;;;;;;;4.43;3.53;;;;;;;25.35;62.75;100862.19;4849447;28;123463;-83
2022/06/25 09:17:49;;;;;;;5.32;4.68;;;;;;;25.42;62.16;100858.66;4890117;28;125666;-83
2022/06/25 09:20:14;;;;;;;5.70;4.25;;;;;;;25.39;62.57;100849.31;4901530;28;122840;-83
2022/06/25 09:22:42;;;;;;;6.35;5.45;;;;;;;25.45;62.04;100857.56;4902541;28;124292;-83
2022/06/25 09:25:08;;;;;;;6.53;5.68;;;;;;;25.52;62.03;100856.88;4883110;28;122192;-83
2022/06/25 09:27:37;;;;;;;7.00;5.90;;;;;;;25.53;61.76;100861.16;4887878;28;124926;-83
2022/06/25 09:30:12;;;;;;;6.97;5.43;;;;;;;25.54;61.49;100859.13;4872987;28;125650;-83
2022/06/25 09:32:53;;;;;;;6.13;5.53;;;;;;;25.49;61.26;100855.16;4892010;28;122788;-82
2022/06/25 09:35:31;;;;;;;6.38;4.45;;;;;;;25.58;60.94;100865.16;4889856;28;122021;-83
2022/06/25 09:38:07;;;;;;;7.18;5.35;;;;;;;25.56;61.16;100848.09;4891180;28;125487;-83
2022/06/25 09:40:34;;;;;;;7.22;5.03;;;;;;;25.59;61.44;100850.56;4887391;28;122783;-83
2022/06/25 09:43:10;;;;;;;6.25;5.47;;;;;;;25.66;60.71;100854.72;4886195;28;124700;-83
2022/06/25 09:45:37;;;;;;;5.88;4.78;;;;;;;25.60;61.21;100851.31;4909042;28;125788;-82
2022/06/25 09:48:03;;;;;;;7.63;4.90;;;;;;;25.56;60.99;100851.66;4889898;28;125053;-82
2022/06/25 09:50:28;;;;;;;6.55;5.05;;;;;;;25.60;61.68;100860.50;4872543;28;125940;-83
2022/06/25 09:53:01;;;;;;;7.50;4.78;;;;;;;25.59;61.89;100852.63;4889861;28;122618;-83
2022/06/25 09:55:30;;;;;;;7.68;5.10;;;;;;;25.65;61.20;100856.78;4905304;28;123531;-82
2022/06/25 09:58:02;;;;;;;6.22;4.90;;;;;;;25.71;60.87;100867.88;4907193;28;122514;-83
2022/06/25 10:00:29;;;;;;;9.10;5.22;;;;;;;25.70;59.75;100864.31;4889008;28;123124;-84
2022/06/25 10:02:57;;;;;;;5.88;5.32;;;;;;;25.70;58.26;100861.50;4905993;28;122363;-83
2022/06/25 10:05:29;;;;;;;7.78;4.82;;;;;;;25.66;59.57;100852.66;4905888;28;123364;-83
2022/06/25 10:08:00;;;;;;;6.18;4.88;;;;;;;25.72;59.60;100863.00;4877143;28;122727;-83
2022/06/25 10:10:33;;;;;;;5.90;4.65;;;;;;;25.66;60.10;100854.72;4903961;28;122729;-83
2022/06/25 10:13:01;;;;;;;5.65;5.00;;;;;;;25.74;60.25;100868.81;4906660;28;122923;-83
2022/06/25 10:15:28;;;;;;;5.07;4.10;;;;;;;25.74;60.24;100868.81;4906419;28;122479;-83
2022/06/25 10:17:54;;;;;;;5.68;4.68;;;;;;;25.76;59.71;100863.41;4888101;28;125867;-84
2022/06/25 10:20:21;;;;;;;5.90;4.20;;;;;;;25.78;59.22;100872.03;4905908;28;122741;-83
2022/06/25 10:22:49;;;;;;;12.57;5.88;;;;;;;25.69;58.88;100862.81;4889563;28;124745;-83
2022/06/25 10:25:18;;;;;;;6.47;5.20;;;;;;;25.68;58.67;100858.50;4904873;28;126034;-83
2022/06/25 10:27:49;;;;;;;9.88;7.50;;;;;;;25.68;58.93;100854.94;4892314;28;123086;-83
2022/06/25 10:30:35;;;;;;;8.68;6.90;;;;;;;25.75;58.52;100861.91;4871324;28;126165;-83
2022/06/25 10:33:00;;;;;;;8.20;5.60;;;;;;;25.78;58.64;100863.59;4905508;28;122871;-83
2022/06/25 10:35:48;;;;;;;8.45;6.07;;;;;;;25.79;59.55;100857.47;4844110;28;125477;-83
2022/06/25 10:38:16;;;;;;;6.18;5.15;;;;;;;25.69;59.92;100839.59;4891974;28;123105;-84
2022/06/25 10:40:46;;;;;;;7.13;6.15;;;;;;;25.84;59.59;100855.78;4887713;28;122489;-83
2022/06/25 10:43:35;;;;;;;6.07;5.47;;;;;;;25.87;59.91;100865.91;4904874;28;122754;-83
2022/06/25 10:46:21;;;;;;;5.47;4.97;;;;;;;25.88;59.83;100862.56;4871849;28;125444;-82
2022/06/25 10:49:02;;;;;;;7.10;6.07;;;;;;;25.90;60.25;100862.00;4888677;28;122356;-83
2022/06/25 10:51:48;;;;;;;7.28;5.78;;;;;;;25.81;59.40;100854.84;4908598;28;122182;-83
2022/06/25 10:54:24;;;;;;;5.68;4.75;;;;;;;25.86;58.65;100861.59;4889670;28;122985;-83
2022/06/25 10:56:55;;;;;;;7.50;4.95;;;;;;;25.84;59.34;100858.59;4885876;28;125691;-84
2022/06/25 10:59:34;;;;;;;5.43;4.75;;;;;;;25.83;59.05;100863.47;4878923;28;125405;-84
2022/06/25 11:02:03;;;;;;;10.35;5.63;;;;;;;25.74;59.07;100849.16;4894348;28;122250;-83
2022/06/25 11:04:30;;;;;;;7.55;5.82;;;;;;;25.71;60.01;100856.63;4910427;28;124963;-83
2022/06/25 11:07:09;;;;;;;7.68;5.30;;;;;;;25.67;60.35;100856.25;4907190;28;124394;-84
2022/06/25 11:09:35;;;;;;;6.63;5.65;;;;;;;25.68;58.87;100864.13;4893963;28;122555;-83
2022/06/25 11:12:01;;;;;;;10.45;5.82;;;;;;;25.59;58.68;100849.81;4909883;28;125037;-83
2022/06/25 11:14:29;;;;;;;6.00;5.40;;;;;;;25.67;58.86;100859.06;4880942;28;125766;-83
2022/06/25 11:16:55;;;;;;;7.43;5.70;;;;;;;25.75;59.42;100865.47;4893270;28;125166;-84
2022/06/25 11:19:22;;;;;;;6.95;6.25;;;;;;;25.72;59.45;100863.00;4876937;28;125456;-82
2022/06/25 11:21:49;;;;;;;7.45;6.05;;;;;;;25.71;59.33;100862.25;4908023;28;123840;-83
2022/06/25 11:24:21;;;;;;;9.05;6.35;;;;;;;25.66;59.05;100855.47;4894014;28;124782;-84
2022/06/25 11:29:58;;;;;;;6.95;6.05;;;;;;;25.62;59.14;100846.66;4892376;28;122897;-84
2022/06/25 11:32:26;;;;;;;7.30;6.00;;;;;;;25.72;59.42;100868.63;4891337;28;122606;-84
2022/06/25 11:34:54;;;;;;;6.88;5.80;;;;;;;25.75;59.61;100868.28;4890001;28;124318;-83